Savoy, Illinois
Current Conditions -  °F | °C
As of 3:53 AM on Thursday 23 Oct 2014 (Local Time) from KCMI Reporting Station
Clear Clear  
Wind Chill: 32°   Ceiling: Unl
Heat Index: 37°   Visibility: 10mi
Dew Point: 34°   Wind: 6mph
Humidity: 89%   Direction: 120°ESE
Pressure: 30.23"   Gusts: NA
Location:  40.05°N, 88.25°W
Report Text: KCMI 230853Z AUTO 12005KT 10SM R32R/4000V4500FT CLR 03/01 A3023 RMK AO2 SLP239 T00280011 56009 $
Loading
Personal Weather Stations






























Interactive Weather Map
Tropical Storm Tracking
New forecast layout! Learn more

10-Day Weather Forecast

Advertisements
Track Severe Weather on mobile